sensor_id;sensor_type;location;lat;lon;timestamp;P1;durP1;ratioP1;P2;durP2;ratioP2
6209;SDS011;3138;52.550;13.148;2023-03-01T00:02:14;23.53;;;13.90;;
6209;SDS011;3138;52.550;13.148;2023-03-01T00:04:43;34.57;;;16.00;;
6209;SDS011;3138;52.550;13.148;2023-03-01T00:07:12;32.73;;;15.47;;
6209;SDS011;3138;52.550;13.148;2023-03-01T00:09:39;24.93;;;15.00;;
6209;SDS011;3138;52.550;13.148;2023-03-01T00:12:11;32.10;;;15.83;;
6209;SDS011;3138;52.550;13.148;2023-03-01T00:14:38;29.50;;;16.57;;
6209;SDS011;3138;52.550;13.148;2023-03-01T00:17:05;28.50;;;15.50;;
6209;SDS011;3138;52.550;13.148;2023-03-01T00:19:33;27.73;;;14.23;;
6209;SDS011;3138;52.550;13.148;2023-03-01T00:22:02;29.23;;;13.30;;
6209;SDS011;3138;52.550;13.148;2023-03-01T00:24:33;30.70;;;15.17;;
6209;SDS011;3138;52.550;13.148;2023-03-01T00:27:00;29.13;;;14.40;;
6209;SDS011;3138;52.550;13.148;2023-03-01T00:29:28;32.77;;;15.00;;
6209;SDS011;3138;52.550;13.148;2023-03-01T00:31:55;25.30;;;13.80;;
6209;SDS011;3138;52.550;13.148;2023-03-01T00:34:26;43.43;;;17.70;;
6209;SDS011;3138;52.550;13.148;2023-03-01T00:36:53;30.23;;;13.77;;
6209;SDS011;3138;52.550;13.148;2023-03-01T00:39:20;37.30;;;15.93;;
6209;SDS011;3138;52.550;13.148;2023-03-01T00:41:50;27.07;;;13.93;;
6209;SDS011;3138;52.550;13.148;2023-03-01T00:44:19;22.63;;;13.03;;
6209;SDS011;3138;52.550;13.148;2023-03-01T00:46:58;23.53;;;12.40;;
6209;SDS011;3138;52.550;13.148;2023-03-01T00:49:57;29.73;;;14.57;;
6209;SDS011;3138;52.550;13.148;2023-03-01T00:52:26;29.03;;;15.40;;
6209;SDS011;3138;52.550;13.148;2023-03-01T00:54:57;29.20;;;13.77;;
6209;SDS011;3138;52.550;13.148;2023-03-01T00:57:28;24.07;;;13.47;;
6209;SDS011;3138;52.550;13.148;2023-03-01T00:59:55;30.70;;;13.77;;
6209;SDS011;3138;52.550;13.148;2023-03-01T01:02:22;30.10;;;14.50;;
6209;SDS011;3138;52.550;13.148;2023-03-01T01:04:51;26.43;;;13.70;;
6209;SDS011;3138;52.550;13.148;2023-03-01T01:07:18;25.17;;;13.83;;
6209;SDS011;3138;52.550;13.148;2023-03-01T01:09:46;30.50;;;13.90;;
6209;SDS011;3138;52.550;13.148;2023-03-01T01:12:13;29.37;;;15.80;;
6209;SDS011;3138;52.550;13.148;2023-03-01T01:14:42;21.97;;;12.83;;
6209;SDS011;3138;52.550;13.148;2023-03-01T01:17:09;26.97;;;13.60;;
6209;SDS011;3138;52.550;13.148;2023-03-01T01:19:36;34.20;;;14.17;;
6209;SDS011;3138;52.550;13.148;2023-03-01T01:22:03;29.13;;;14.57;;
6209;SDS011;3138;52.550;13.148;2023-03-01T01:24:30;26.40;;;13.80;;
6209;SDS011;3138;52.550;13.148;2023-03-01T01:26:57;36.73;;;13.70;;
6209;SDS011;3138;52.550;13.148;2023-03-01T01:29:24;31.20;;;14.30;;
6209;SDS011;3138;52.550;13.148;2023-03-01T01:31:52;25.57;;;14.17;;
6209;SDS011;3138;52.550;13.148;2023-03-01T01:34:20;22.27;;;12.73;;
6209;SDS011;3138;52.550;13.148;2023-03-01T01:36:48;24.03;;;12.80;;
6209;SDS011;3138;52.550;13.148;2023-03-01T01:39:15;28.93;;;13.73;;
6209;SDS011;3138;52.550;13.148;2023-03-01T01:41:43;25.80;;;14.80;;
6209;SDS011;3138;52.550;13.148;2023-03-01T01:44:11;24.47;;;14.70;;
6209;SDS011;3138;52.550;13.148;2023-03-01T01:46:41;24.07;;;12.23;;
6209;SDS011;3138;52.550;13.148;2023-03-01T01:49:15;22.53;;;13.07;;
6209;SDS011;3138;52.550;13.148;2023-03-01T01:51:49;29.70;;;14.90;;
6209;SDS011;3138;52.550;13.148;2023-03-01T01:54:19;22.83;;;12.27;;
6209;SDS011;3138;52.550;13.148;2023-03-01T01:56:50;32.90;;;14.57;;
6209;SDS011;3138;52.550;13.148;2023-03-01T01:59:21;31.87;;;13.73;;
6209;SDS011;3138;52.550;13.148;2023-03-01T02:01:50;36.33;;;13.43;;
6209;SDS011;3138;52.550;13.148;2023-03-01T02:04:19;27.73;;;15.00;;
6209;SDS011;3138;52.550;13.148;2023-03-01T02:06:48;43.97;;;14.53;;
6209;SDS011;3138;52.550;13.148;2023-03-01T02:09:20;26.47;;;13.53;;
6209;SDS011;3138;52.550;13.148;2023-03-01T02:11:50;27.97;;;13.30;;
6209;SDS011;3138;52.550;13.148;2023-03-01T02:14:18;30.93;;;13.93;;
6209;SDS011;3138;52.550;13.148;2023-03-01T02:16:45;29.30;;;14.40;;
6209;SDS011;3138;52.550;13.148;2023-03-01T02:19:13;37.60;;;15.33;;
6209;SDS011;3138;52.550;13.148;2023-03-01T02:21:48;29.53;;;15.50;;
6209;SDS011;3138;52.550;13.148;2023-03-01T02:24:24;30.43;;;15.47;;
6209;SDS011;3138;52.550;13.148;2023-03-01T02:27:00;36.20;;;15.20;;
6209;SDS011;3138;52.550;13.148;2023-03-01T02:29:28;27.60;;;14.93;;
6209;SDS011;3138;52.550;13.148;2023-03-01T02:31:56;27.77;;;16.20;;
6209;SDS011;3138;52.550;13.148;2023-03-01T02:34:26;36.27;;;17.10;;
6209;SDS011;3138;52.550;13.148;2023-03-01T02:36:55;42.73;;;17.10;;
6209;SDS011;3138;52.550;13.148;2023-03-01T02:39:26;40.83;;;16.80;;
6209;SDS011;3138;52.550;13.148;2023-03-01T02:41:56;34.27;;;16.40;;
6209;SDS011;3138;52.550;13.148;2023-03-01T02:44:25;37.53;;;16.33;;
6209;SDS011;3138;52.550;13.148;2023-03-01T02:47:01;32.07;;;18.07;;
6209;SDS011;3138;52.550;13.148;2023-03-01T02:49:40;37.37;;;16.87;;
6209;SDS011;3138;52.550;13.148;2023-03-01T02:52:11;38.23;;;16.50;;
6209;SDS011;3138;52.550;13.148;2023-03-01T02:54:54;33.50;;;15.97;;
6209;SDS011;3138;52.550;13.148;2023-03-01T02:57:25;31.33;;;16.60;;
6209;SDS011;3138;52.550;13.148;2023-03-01T02:59:53;34.83;;;17.03;;
6209;SDS011;3138;52.550;13.148;2023-03-01T03:02:23;39.13;;;17.70;;
6209;SDS011;3138;52.550;13.148;2023-03-01T03:05:07;48.97;;;18.70;;
6209;SDS011;3138;52.550;13.148;2023-03-01T03:07:37;43.07;;;18.53;;
6209;SDS011;3138;52.550;13.148;2023-03-01T03:10:08;38.47;;;17.77;;
6209;SDS011;3138;52.550;13.148;2023-03-01T03:12:37;33.80;;;17.10;;
6209;SDS011;3138;52.550;13.148;2023-03-01T03:15:06;37.40;;;17.60;;
6209;SDS011;3138;52.550;13.148;2023-03-01T03:17:36;39.50;;;18.03;;
6209;SDS011;3138;52.550;13.148;2023-03-01T03:20:05;37.23;;;17.37;;
6209;SDS011;3138;52.550;13.148;2023-03-01T03:22:36;45.03;;;17.60;;
6209;SDS011;3138;52.550;13.148;2023-03-01T03:25:04;42.77;;;18.90;;
6209;SDS011;3138;52.550;13.148;2023-03-01T03:27:35;33.37;;;16.67;;
6209;SDS011;3138;52.550;13.148;2023-03-01T03:30:06;37.93;;;18.50;;
6209;SDS011;3138;52.550;13.148;2023-03-01T03:32:38;32.60;;;17.20;;
6209;SDS011;3138;52.550;13.148;2023-03-01T03:35:05;29.20;;;16.00;;
6209;SDS011;3138;52.550;13.148;2023-03-01T03:37:35;46.03;;;18.10;;
6209;SDS011;3138;52.550;13.148;2023-03-01T03:40:20;40.80;;;16.67;;
6209;SDS011;3138;52.550;13.148;2023-03-01T03:42:47;37.33;;;17.50;;
6209;SDS011;3138;52.550;13.148;2023-03-01T03:45:14;37.40;;;19.00;;
6209;SDS011;3138;52.550;13.148;2023-03-01T03:47:43;36.70;;;18.40;;
6209;SDS011;3138;52.550;13.148;2023-03-01T03:50:10;42.30;;;17.17;;
6209;SDS011;3138;52.550;13.148;2023-03-01T03:52:39;31.83;;;16.53;;
6209;SDS011;3138;52.550;13.148;2023-03-01T03:55:06;30.43;;;16.17;;
6209;SDS011;3138;52.550;13.148;2023-03-01T03:57:36;35.90;;;18.47;;
6209;SDS011;3138;52.550;13.148;2023-03-01T04:00:03;30.33;;;16.93;;
6209;SDS011;3138;52.550;13.148;2023-03-01T04:02:37;44.53;;;18.57;;
6209;SDS011;3138;52.550;13.148;2023-03-01T04:05:07;34.53;;;16.77;;
6209;SDS011;3138;52.550;13.148;2023-03-01T04:07:35;38.87;;;18.93;;
6209;SDS011;3138;52.550;13.148;2023-03-01T04:10:03;35.92;;;17.92;;
6209;SDS011;3138;52.550;13.148;2023-03-01T04:12:34;35.42;;;17.35;;
6209;SDS011;3138;52.550;13.148;2023-03-01T04:15:01;31.65;;;15.65;;
6209;SDS011;3138;52.550;13.148;2023-03-01T04:17:37;40.23;;;18.30;;
6209;SDS011;3138;52.550;13.148;2023-03-01T04:20:06;40.10;;;18.80;;
6209;SDS011;3138;52.550;13.148;2023-03-01T04:22:36;36.20;;;18.17;;
6209;SDS011;3138;52.550;13.148;2023-03-01T04:25:03;42.03;;;18.20;;
6209;SDS011;3138;52.550;13.148;2023-03-01T04:27:31;34.33;;;16.87;;
6209;SDS011;3138;52.550;13.148;2023-03-01T04:29:58;44.07;;;19.53;;
6209;SDS011;3138;52.550;13.148;2023-03-01T04:32:25;46.57;;;18.30;;
6209;SDS011;3138;52.550;13.148;2023-03-01T04:34:56;32.70;;;16.10;;
6209;SDS011;3138;52.550;13.148;2023-03-01T04:37:25;32.27;;;16.57;;
6209;SDS011;3138;52.550;13.148;2023-03-01T04:39:51;37.07;;;17.73;;
6209;SDS011;3138;52.550;13.148;2023-03-01T04:42:18;35.30;;;18.17;;
6209;SDS011;3138;52.550;13.148;2023-03-01T04:44:45;46.60;;;18.07;;
6209;SDS011;3138;52.550;13.148;2023-03-01T04:47:12;36.50;;;17.63;;
6209;SDS011;3138;52.550;13.148;2023-03-01T04:49:39;35.60;;;18.70;;
6209;SDS011;3138;52.550;13.148;2023-03-01T04:52:06;39.00;;;18.70;;
6209;SDS011;3138;52.550;13.148;2023-03-01T04:54:35;41.87;;;17.30;;
6209;SDS011;3138;52.550;13.148;2023-03-01T04:57:02;38.73;;;19.50;;
6209;SDS011;3138;52.550;13.148;2023-03-01T04:59:29;30.60;;;16.50;;
6209;SDS011;3138;52.550;13.148;2023-03-01T05:01:56;39.70;;;17.33;;
6209;SDS011;3138;52.550;13.148;2023-03-01T05:04:25;29.90;;;15.52;;
6209;SDS011;3138;52.550;13.148;2023-03-01T05:06:52;35.83;;;18.00;;
6209;SDS011;3138;52.550;13.148;2023-03-01T05:09:19;37.43;;;17.63;;
6209;SDS011;3138;52.550;13.148;2023-03-01T05:11:47;31.90;;;17.17;;
6209;SDS011;3138;52.550;13.148;2023-03-01T05:14:16;31.40;;;15.53;;
6209;SDS011;3138;52.550;13.148;2023-03-01T05:16:43;38.27;;;17.37;;
6209;SDS011;3138;52.550;13.148;2023-03-01T05:19:10;33.43;;;16.37;;
6209;SDS011;3138;52.550;13.148;2023-03-01T05:21:41;44.77;;;18.67;;
6209;SDS011;3138;52.550;13.148;2023-03-01T05:24:22;32.30;;;16.97;;
6209;SDS011;3138;52.550;13.148;2023-03-01T05:26:50;39.60;;;18.07;;
6209;SDS011;3138;52.550;13.148;2023-03-01T05:29:18;44.07;;;16.97;;
6209;SDS011;3138;52.550;13.148;2023-03-01T05:31:50;41.37;;;18.63;;
6209;SDS011;3138;52.550;13.148;2023-03-01T05:34:18;33.17;;;18.45;;
6209;SDS011;3138;52.550;13.148;2023-03-01T05:36:47;27.40;;;15.03;;
6209;SDS011;3138;52.550;13.148;2023-03-01T05:39:18;30.10;;;17.27;;
6209;SDS011;3138;52.550;13.148;2023-03-01T05:41:46;33.13;;;15.25;;
6209;SDS011;3138;52.550;13.148;2023-03-01T05:44:14;40.80;;;17.10;;
6209;SDS011;3138;52.550;13.148;2023-03-01T05:46:41;32.57;;;16.57;;
6209;SDS011;3138;52.550;13.148;2023-03-01T05:49:08;42.53;;;17.70;;
6209;SDS011;3138;52.550;13.148;2023-03-01T05:51:35;41.57;;;17.57;;
6209;SDS011;3138;52.550;13.148;2023-03-01T05:54:02;36.37;;;16.60;;
6209;SDS011;3138;52.550;13.148;2023-03-01T05:56:31;32.57;;;17.80;;
6209;SDS011;3138;52.550;13.148;2023-03-01T05:58:59;40.07;;;17.60;;
6209;SDS011;3138;52.550;13.148;2023-03-01T06:01:28;33.53;;;17.57;;
6209;SDS011;3138;52.550;13.148;2023-03-01T06:03:55;35.03;;;18.03;;
6209;SDS011;3138;52.550;13.148;2023-03-01T06:06:22;36.75;;;17.73;;
6209;SDS011;3138;52.550;13.148;2023-03-01T06:08:49;35.25;;;17.65;;
6209;SDS011;3138;52.550;13.148;2023-03-01T06:11:17;41.40;;;20.63;;
6209;SDS011;3138;52.550;13.148;2023-03-01T06:13:47;51.33;;;18.73;;
6209;SDS011;3138;52.550;13.148;2023-03-01T06:16:18;43.13;;;19.97;;
6209;SDS011;3138;52.550;13.148;2023-03-01T06:21:28;37.83;;;17.93;;
6209;SDS011;3138;52.550;13.148;2023-03-01T06:23:55;37.75;;;18.02;;
6209;SDS011;3138;52.550;13.148;2023-03-01T06:26:22;48.17;;;20.17;;
6209;SDS011;3138;52.550;13.148;2023-03-01T06:28:49;40.38;;;19.60;;
6209;SDS011;3138;52.550;13.148;2023-03-01T06:31:16;39.00;;;18.37;;
6209;SDS011;3138;52.550;13.148;2023-03-01T06:33:50;54.30;;;20.33;;
6209;SDS011;3138;52.550;13.148;2023-03-01T06:36:21;42.33;;;19.90;;
6209;SDS011;3138;52.550;13.148;2023-03-01T06:38:48;42.30;;;21.38;;
6209;SDS011;3138;52.550;13.148;2023-03-01T06:41:15;44.47;;;18.80;;
6209;SDS011;3138;52.550;13.148;2023-03-01T06:43:42;48.70;;;22.03;;
6209;SDS011;3138;52.550;13.148;2023-03-01T06:46:19;44.47;;;20.27;;
6209;SDS011;3138;52.550;13.148;2023-03-01T06:54:20;105.90;;;36.57;;
6209;SDS011;3138;52.550;13.148;2023-03-01T06:56:47;52.70;;;25.20;;
6209;SDS011;3138;52.550;13.148;2023-03-01T06:59:17;40.27;;;20.80;;
6209;SDS011;3138;52.550;13.148;2023-03-01T07:01:44;42.53;;;22.30;;
6209;SDS011;3138;52.550;13.148;2023-03-01T07:04:12;41.73;;;19.60;;
6209;SDS011;3138;52.550;13.148;2023-03-01T07:06:39;47.47;;;23.90;;
6209;SDS011;3138;52.550;13.148;2023-03-01T07:09:08;53.50;;;21.83;;
6209;SDS011;3138;52.550;13.148;2023-03-01T07:11:35;49.63;;;23.00;;
6209;SDS011;3138;52.550;13.148;2023-03-01T07:14:02;53.90;;;24.77;;
6209;SDS011;3138;52.550;13.148;2023-03-01T07:16:29;47.73;;;23.00;;
6209;SDS011;3138;52.550;13.148;2023-03-01T07:19:14;45.67;;;24.73;;
6209;SDS011;3138;52.550;13.148;2023-03-01T07:21:40;52.47;;;22.80;;
6209;SDS011;3138;52.550;13.148;2023-03-01T07:24:09;48.93;;;23.17;;
6209;SDS011;3138;52.550;13.148;2023-03-01T07:26:36;51.67;;;24.60;;
6209;SDS011;3138;52.550;13.148;2023-03-01T07:29:04;53.40;;;22.27;;
6209;SDS011;3138;52.550;13.148;2023-03-01T07:31:32;44.43;;;22.90;;
6209;SDS011;3138;52.550;13.148;2023-03-01T07:33:59;49.07;;;25.07;;
6209;SDS011;3138;52.550;13.148;2023-03-01T07:36:26;38.17;;;21.43;;
6209;SDS011;3138;52.550;13.148;2023-03-01T07:38:53;43.80;;;22.40;;
6209;SDS011;3138;52.550;13.148;2023-03-01T07:41:22;45.13;;;24.97;;
6209;SDS011;3138;52.550;13.148;2023-03-01T07:43:49;40.63;;;22.93;;
6209;SDS011;3138;52.550;13.148;2023-03-01T07:46:16;39.07;;;21.60;;
6209;SDS011;3138;52.550;13.148;2023-03-01T07:48:44;46.87;;;22.67;;
6209;SDS011;3138;52.550;13.148;2023-03-01T07:51:11;38.07;;;21.90;;
6209;SDS011;3138;52.550;13.148;2023-03-01T07:53:38;37.93;;;21.37;;
6209;SDS011;3138;52.550;13.148;2023-03-01T07:56:05;52.83;;;20.70;;
6209;SDS011;3138;52.550;13.148;2023-03-01T07:58:36;34.90;;;21.17;;
6209;SDS011;3138;52.550;13.148;2023-03-01T08:01:04;42.73;;;21.03;;
6209;SDS011;3138;52.550;13.148;2023-03-01T08:03:32;43.17;;;20.83;;
6209;SDS011;3138;52.550;13.148;2023-03-01T08:05:59;41.33;;;22.67;;
6209;SDS011;3138;52.550;13.148;2023-03-01T08:08:26;40.80;;;22.07;;
6209;SDS011;3138;52.550;13.148;2023-03-01T08:10:56;38.20;;;21.90;;
6209;SDS011;3138;52.550;13.148;2023-03-01T08:13:23;34.93;;;21.50;;
6209;SDS011;3138;52.550;13.148;2023-03-01T08:15:51;35.17;;;19.30;;
6209;SDS011;3138;52.550;13.148;2023-03-01T08:18:19;36.17;;;19.13;;
6209;SDS011;3138;52.550;13.148;2023-03-01T08:20:46;31.77;;;18.30;;
6209;SDS011;3138;52.550;13.148;2023-03-01T08:23:13;35.10;;;18.13;;
6209;SDS011;3138;52.550;13.148;2023-03-01T08:25:40;31.90;;;19.20;;
6209;SDS011;3138;52.550;13.148;2023-03-01T08:28:07;31.33;;;17.80;;
6209;SDS011;3138;52.550;13.148;2023-03-01T08:30:34;31.33;;;17.20;;
6209;SDS011;3138;52.550;13.148;2023-03-01T08:33:02;42.77;;;15.73;;
6209;SDS011;3138;52.550;13.148;2023-03-01T08:35:29;26.33;;;14.60;;
6209;SDS011;3138;52.550;13.148;2023-03-01T08:37:56;31.97;;;14.93;;
6209;SDS011;3138;52.550;13.148;2023-03-01T08:40:23;25.13;;;14.77;;
6209;SDS011;3138;52.550;13.148;2023-03-01T08:42:50;27.57;;;14.10;;
6209;SDS011;3138;52.550;13.148;2023-03-01T08:45:17;32.30;;;15.20;;
6209;SDS011;3138;52.550;13.148;2023-03-01T08:47:44;23.77;;;13.13;;
6209;SDS011;3138;52.550;13.148;2023-03-01T08:50:12;23.80;;;12.37;;
6209;SDS011;3138;52.550;13.148;2023-03-01T08:52:39;25.90;;;13.50;;
6209;SDS011;3138;52.550;13.148;2023-03-01T08:55:07;27.40;;;14.20;;
6209;SDS011;3138;52.550;13.148;2023-03-01T08:57:34;30.30;;;13.03;;
6209;SDS011;3138;52.550;13.148;2023-03-01T09:00:01;29.63;;;12.10;;
6209;SDS011;3138;52.550;13.148;2023-03-01T09:02:28;26.03;;;12.07;;
6209;SDS011;3138;52.550;13.148;2023-03-01T09:04:55;19.60;;;11.30;;
6209;SDS011;3138;52.550;13.148;2023-03-01T09:07:23;19.60;;;10.73;;
6209;SDS011;3138;52.550;13.148;2023-03-01T09:09:53;32.93;;;10.60;;
6209;SDS011;3138;52.550;13.148;2023-03-01T09:12:20;20.20;;;9.90;;
6209;SDS011;3138;52.550;13.148;2023-03-01T09:14:47;18.23;;;9.80;;
6209;SDS011;3138;52.550;13.148;2023-03-01T09:17:14;14.23;;;8.80;;
6209;SDS011;3138;52.550;13.148;2023-03-01T09:19:41;10.13;;;7.47;;
6209;SDS011;3138;52.550;13.148;2023-03-01T09:22:08;14.90;;;6.90;;
6209;SDS011;3138;52.550;13.148;2023-03-01T09:24:36;22.70;;;7.80;;
6209;SDS011;3138;52.550;13.148;2023-03-01T09:27:04;14.60;;;7.67;;
6209;SDS011;3138;52.550;13.148;2023-03-01T09:29:33;15.53;;;9.00;;
6209;SDS011;3138;52.550;13.148;2023-03-01T09:32:01;19.07;;;9.70;;
6209;SDS011;3138;52.550;13.148;2023-03-01T09:34:28;21.13;;;9.90;;
6209;SDS011;3138;52.550;13.148;2023-03-01T09:36:56;15.23;;;9.17;;
6209;SDS011;3138;52.550;13.148;2023-03-01T09:39:25;13.00;;;7.70;;
6209;SDS011;3138;52.550;13.148;2023-03-01T09:41:57;12.00;;;7.50;;
6209;SDS011;3138;52.550;13.148;2023-03-01T09:44:28;18.33;;;9.03;;
6209;SDS011;3138;52.550;13.148;2023-03-01T09:47:00;22.80;;;7.53;;
6209;SDS011;3138;52.550;13.148;2023-03-01T09:49:31;14.50;;;8.20;;
6209;SDS011;3138;52.550;13.148;2023-03-01T09:52:03;23.90;;;10.43;;
6209;SDS011;3138;52.550;13.148;2023-03-01T09:54:39;15.83;;;8.43;;
6209;SDS011;3138;52.550;13.148;2023-03-01T09:57:10;22.70;;;8.80;;
6209;SDS011;3138;52.550;13.148;2023-03-01T09:59:47;18.10;;;7.77;;
6209;SDS011;3138;52.550;13.148;2023-03-01T10:02:23;13.07;;;7.20;;
6209;SDS011;3138;52.550;13.148;2023-03-01T10:04:57;8.73;;;7.40;;
6209;SDS011;3138;52.550;13.148;2023-03-01T10:07:38;12.30;;;6.43;;
6209;SDS011;3138;52.550;13.148;2023-03-01T10:10:15;9.00;;;5.30;;
6209;SDS011;3138;52.550;13.148;2023-03-01T10:12:49;11.30;;;5.17;;
6209;SDS011;3138;52.550;13.148;2023-03-01T10:15:18;7.33;;;4.10;;
6209;SDS011;3138;52.550;13.148;2023-03-01T10:17:49;8.50;;;3.63;;
6209;SDS011;3138;52.550;13.148;2023-03-01T10:20:25;13.20;;;5.03;;
6209;SDS011;3138;52.550;13.148;2023-03-01T10:22:56;17.33;;;5.10;;
6209;SDS011;3138;52.550;13.148;2023-03-01T10:25:35;8.57;;;5.43;;
6209;SDS011;3138;52.550;13.148;2023-03-01T10:28:16;11.43;;;5.87;;
6209;SDS011;3138;52.550;13.148;2023-03-01T10:30:44;11.10;;;6.90;;
6209;SDS011;3138;52.550;13.148;2023-03-01T10:33:14;10.40;;;5.10;;
6209;SDS011;3138;52.550;13.148;2023-03-01T10:35:43;6.93;;;4.57;;
6209;SDS011;3138;52.550;13.148;2023-03-01T10:38:11;7.40;;;4.77;;
6209;SDS011;3138;52.550;13.148;2023-03-01T10:40:49;6.37;;;4.50;;
6209;SDS011;3138;52.550;13.148;2023-03-01T10:43:20;12.73;;;4.63;;
6209;SDS011;3138;52.550;13.148;2023-03-01T10:45:47;8.03;;;3.80;;
6209;SDS011;3138;52.550;13.148;2023-03-01T10:48:15;6.33;;;4.00;;
6209;SDS011;3138;52.550;13.148;2023-03-01T10:50:45;6.27;;;3.90;;
6209;SDS011;3138;52.550;13.148;2023-03-01T10:53:19;9.83;;;4.13;;
6209;SDS011;3138;52.550;13.148;2023-03-01T10:55:58;5.40;;;3.80;;
6209;SDS011;3138;52.550;13.148;2023-03-01T10:58:29;9.10;;;3.77;;
6209;SDS011;3138;52.550;13.148;2023-03-01T11:00:58;3.90;;;3.20;;
6209;SDS011;3138;52.550;13.148;2023-03-01T11:03:27;4.60;;;3.60;;
6209;SDS011;3138;52.550;13.148;2023-03-01T11:06:00;5.93;;;4.00;;
6209;SDS011;3138;52.550;13.148;2023-03-01T11:08:31;4.63;;;3.40;;
6209;SDS011;3138;52.550;13.148;2023-03-01T11:11:03;6.90;;;3.60;;
6209;SDS011;3138;52.550;13.148;2023-03-01T11:13:33;3.90;;;3.40;;
6209;SDS011;3138;52.550;13.148;2023-03-01T11:16:01;6.53;;;3.90;;
6209;SDS011;3138;52.550;13.148;2023-03-01T11:18:30;3.93;;;3.30;;
6209;SDS011;3138;52.550;13.148;2023-03-01T11:20:58;3.70;;;2.73;;
6209;SDS011;3138;52.550;13.148;2023-03-01T11:23:27;5.13;;;3.60;;
6209;SDS011;3138;52.550;13.148;2023-03-01T11:25:56;4.10;;;3.63;;
6209;SDS011;3138;52.550;13.148;2023-03-01T11:28:27;5.73;;;3.70;;
6209;SDS011;3138;52.550;13.148;2023-03-01T11:30:57;8.20;;;4.10;;
6209;SDS011;3138;52.550;13.148;2023-03-01T11:33:33;7.93;;;3.80;;
6209;SDS011;3138;52.550;13.148;2023-03-01T11:36:07;4.50;;;3.23;;
6209;SDS011;3138;52.550;13.148;2023-03-01T11:38:39;4.43;;;3.30;;
6209;SDS011;3138;52.550;13.148;2023-03-01T11:41:08;5.80;;;2.83;;
6209;SDS011;3138;52.550;13.148;2023-03-01T11:43:42;5.17;;;2.40;;
6209;SDS011;3138;52.550;13.148;2023-03-01T11:49:15;5.47;;;3.70;;
6209;SDS011;3138;52.550;13.148;2023-03-01T11:52:01;4.87;;;3.67;;
6209;SDS011;3138;52.550;13.148;2023-03-01T11:54:33;7.33;;;3.30;;
6209;SDS011;3138;52.550;13.148;2023-03-01T11:57:13;16.33;;;3.10;;
6209;SDS011;3138;52.550;13.148;2023-03-01T12:02:56;2.40;;;2.20;;
6209;SDS011;3138;52.550;13.148;2023-03-01T12:05:54;7.30;;;3.20;;
6209;SDS011;3138;52.550;13.148;2023-03-01T12:08:37;4.50;;;2.97;;
6209;SDS011;3138;52.550;13.148;2023-03-01T12:11:12;2.93;;;2.40;;
6209;SDS011;3138;52.550;13.148;2023-03-01T12:13:55;2.93;;;2.30;;
6209;SDS011;3138;52.550;13.148;2023-03-01T12:16:59;3.93;;;2.87;;
6209;SDS011;3138;52.550;13.148;2023-03-01T12:19:41;3.70;;;2.70;;
6209;SDS011;3138;52.550;13.148;2023-03-01T12:22:25;2.63;;;2.43;;
6209;SDS011;3138;52.550;13.148;2023-03-01T12:25:02;20.27;;;3.20;;
6209;SDS011;3138;52.550;13.148;2023-03-01T12:27:46;2.93;;;2.50;;
6209;SDS011;3138;52.550;13.148;2023-03-01T12:30:37;12.87;;;3.77;;
6209;SDS011;3138;52.550;13.148;2023-03-01T12:33:22;4.10;;;2.93;;
6209;SDS011;3138;52.550;13.148;2023-03-01T12:36:07;3.50;;;3.07;;
6209;SDS011;3138;52.550;13.148;2023-03-01T12:38:56;3.70;;;3.00;;
6209;SDS011;3138;52.550;13.148;2023-03-01T12:41:40;4.77;;;3.03;;
6209;SDS011;3138;52.550;13.148;2023-03-01T12:44:15;8.33;;;3.33;;
6209;SDS011;3138;52.550;13.148;2023-03-01T12:47:04;4.23;;;3.03;;
6209;SDS011;3138;52.550;13.148;2023-03-01T12:49:37;2.80;;;2.60;;
6209;SDS011;3138;52.550;13.148;2023-03-01T12:52:11;2.63;;;2.43;;
6209;SDS011;3138;52.550;13.148;2023-03-01T12:54:41;5.97;;;2.80;;
6209;SDS011;3138;52.550;13.148;2023-03-01T12:57:09;2.70;;;2.30;;
6209;SDS011;3138;52.550;13.148;2023-03-01T12:59:42;2.90;;;2.50;;
6209;SDS011;3138;52.550;13.148;2023-03-01T13:02:19;2.57;;;2.37;;
6209;SDS011;3138;52.550;13.148;2023-03-01T13:04:59;3.23;;;2.60;;
6209;SDS011;3138;52.550;13.148;2023-03-01T13:07:38;3.00;;;2.70;;
6209;SDS011;3138;52.550;13.148;2023-03-01T13:10:15;8.40;;;3.37;;
6209;SDS011;3138;52.550;13.148;2023-03-01T13:12:53;3.90;;;2.50;;
6209;SDS011;3138;52.550;13.148;2023-03-01T13:15:29;2.43;;;2.20;;
6209;SDS011;3138;52.550;13.148;2023-03-01T13:17:58;7.23;;;1.83;;
6209;SDS011;3138;52.550;13.148;2023-03-01T13:20:29;6.07;;;2.47;;
6209;SDS011;3138;52.550;13.148;2023-03-01T13:23:04;3.03;;;2.70;;
6209;SDS011;3138;52.550;13.148;2023-03-01T13:25:34;5.17;;;2.83;;
6209;SDS011;3138;52.550;13.148;2023-03-01T13:34:45;4.77;;;3.33;;
6209;SDS011;3138;52.550;13.148;2023-03-01T13:37:24;3.37;;;2.23;;
6209;SDS011;3138;52.550;13.148;2023-03-01T13:39:55;3.77;;;3.40;;
6209;SDS011;3138;52.550;13.148;2023-03-01T13:42:32;4.33;;;2.33;;
6209;SDS011;3138;52.550;13.148;2023-03-01T13:45:02;3.30;;;2.80;;
6209;SDS011;3138;52.550;13.148;2023-03-01T13:47:32;2.63;;;2.43;;
6209;SDS011;3138;52.550;13.148;2023-03-01T13:50:02;5.03;;;2.73;;
6209;SDS011;3138;52.550;13.148;2023-03-01T13:52:32;3.17;;;2.60;;
6209;SDS011;3138;52.550;13.148;2023-03-01T13:55:06;8.07;;;3.43;;
6209;SDS011;3138;52.550;13.148;2023-03-01T13:57:45;5.83;;;2.67;;
6209;SDS011;3138;52.550;13.148;2023-03-01T14:00:25;3.90;;;2.80;;
6209;SDS011;3138;52.550;13.148;2023-03-01T14:03:09;3.97;;;3.13;;
6209;SDS011;3138;52.550;13.148;2023-03-01T14:05:38;5.63;;;3.40;;
6209;SDS011;3138;52.550;13.148;2023-03-01T14:08:17;12.33;;;3.47;;
6209;SDS011;3138;52.550;13.148;2023-03-01T14:10:50;7.60;;;3.70;;
6209;SDS011;3138;52.550;13.148;2023-03-01T14:13:28;5.23;;;3.40;;
6209;SDS011;3138;52.550;13.148;2023-03-01T14:16:12;9.07;;;4.03;;
6209;SDS011;3138;52.550;13.148;2023-03-01T14:18:50;6.20;;;3.33;;
6209;SDS011;3138;52.550;13.148;2023-03-01T14:21:29;10.73;;;4.63;;
6209;SDS011;3138;52.550;13.148;2023-03-01T14:23:56;4.60;;;2.93;;
6209;SDS011;3138;52.550;13.148;2023-03-01T14:26:24;16.90;;;4.50;;
6209;SDS011;3138;52.550;13.148;2023-03-01T14:28:52;14.43;;;3.87;;
6209;SDS011;3138;52.550;13.148;2023-03-01T14:31:31;2.40;;;2.17;;
6209;SDS011;3138;52.550;13.148;2023-03-01T14:34:00;5.83;;;2.93;;
6209;SDS011;3138;52.550;13.148;2023-03-01T14:36:28;3.80;;;2.47;;
6209;SDS011;3138;52.550;13.148;2023-03-01T14:38:58;8.13;;;3.40;;
6209;SDS011;3138;52.550;13.148;2023-03-01T14:41:31;4.60;;;2.80;;
6209;SDS011;3138;52.550;13.148;2023-03-01T14:44:03;5.80;;;2.33;;
6209;SDS011;3138;52.550;13.148;2023-03-01T14:46:38;8.50;;;3.80;;
6209;SDS011;3138;52.550;13.148;2023-03-01T14:49:06;3.97;;;2.40;;
6209;SDS011;3138;52.550;13.148;2023-03-01T14:51:39;6.23;;;3.20;;
6209;SDS011;3138;52.550;13.148;2023-03-01T14:54:16;3.90;;;2.67;;
6209;SDS011;3138;52.550;13.148;2023-03-01T14:56:47;4.43;;;2.90;;
6209;SDS011;3138;52.550;13.148;2023-03-01T14:59:15;8.37;;;2.80;;
6209;SDS011;3138;52.550;13.148;2023-03-01T15:01:47;6.00;;;3.37;;
6209;SDS011;3138;52.550;13.148;2023-03-01T15:04:15;8.03;;;3.70;;
6209;SDS011;3138;52.550;13.148;2023-03-01T15:06:42;4.63;;;3.17;;
6209;SDS011;3138;52.550;13.148;2023-03-01T15:09:12;3.13;;;2.37;;
6209;SDS011;3138;52.550;13.148;2023-03-01T15:11:42;4.83;;;3.50;;
6209;SDS011;3138;52.550;13.148;2023-03-01T15:14:26;21.60;;;6.13;;
6209;SDS011;3138;52.550;13.148;2023-03-01T15:16:55;4.37;;;3.17;;
6209;SDS011;3138;52.550;13.148;2023-03-01T15:19:23;4.40;;;2.40;;
6209;SDS011;3138;52.550;13.148;2023-03-01T15:21:52;4.33;;;3.20;;
6209;SDS011;3138;52.550;13.148;2023-03-01T15:24:20;12.43;;;2.73;;
6209;SDS011;3138;52.550;13.148;2023-03-01T15:26:50;7.73;;;3.10;;